createdAt,value
2017-11-11T00:01:02.277Z,95545.38
2017-11-11T00:03:30.793Z,95540.34
2017-11-11T00:05:58.961Z,95540.14
2017-11-11T00:08:26.695Z,95547.03
2017-11-11T00:10:54.477Z,95535.88
2017-11-11T00:13:22.304Z,95538.13
2017-11-11T00:15:49.917Z,95542.05
2017-11-11T00:18:17.529Z,95548.17
2017-11-11T00:20:45.099Z,95547.98
2017-11-11T00:23:12.756Z,95545.02
2017-11-11T00:25:41.077Z,95548.27
2017-11-11T00:28:08.679Z,95541.72
2017-11-11T00:30:36.300Z,95531.61
2017-11-11T00:33:04.093Z,95528.35
2017-11-11T00:35:31.901Z,95544.56
2017-11-11T00:37:59.917Z,95533.27
2017-11-11T00:40:28.266Z,95526.20
2017-11-11T00:42:55.801Z,95525.58
2017-11-11T00:45:23.596Z,95520.41
2017-11-11T00:47:51.464Z,95530.00
2017-11-11T00:50:19.246Z,95520.11
2017-11-11T00:52:46.921Z,95533.50
2017-11-11T00:55:14.526Z,95521.91
2017-11-11T00:57:42.185Z,95518.45
2017-11-11T01:00:09.968Z,95519.08
2017-11-11T01:02:38.634Z,95511.16
2017-11-11T01:05:06.514Z,95526.25
2017-11-11T01:07:35.014Z,95522.30
2017-11-11T01:10:03.194Z,95513.59
2017-11-11T01:12:31.609Z,95507.70
2017-11-11T01:14:59.213Z,95500.75
2017-11-11T01:17:26.981Z,95499.73
2017-11-11T01:19:54.814Z,95510.07
2017-11-11T01:22:23.263Z,95507.70
2017-11-11T01:24:51.873Z,95498.95
2017-11-11T01:27:19.732Z,95498.77
2017-11-11T01:29:47.581Z,95506.58
2017-11-11T01:32:15.675Z,95505.91
2017-11-11T01:34:43.483Z,95503.72
2017-11-11T01:37:11.293Z,95490.29
2017-11-11T01:39:39.099Z,95474.98
2017-11-11T01:42:06.702Z,95486.22
2017-11-11T01:44:34.321Z,95467.75
2017-11-11T01:47:03.668Z,95468.38
2017-11-11T01:49:32.003Z,95477.14
2017-11-11T01:52:00.910Z,95462.77
2017-11-11T01:54:29.790Z,95449.91
2017-11-11T01:56:59.353Z,95445.80
2017-11-11T01:59:30.710Z,95450.56
2017-11-11T02:02:03.785Z,95446.80
2017-11-11T02:04:33.645Z,95451.55
2017-11-11T02:07:02.888Z,95438.69
2017-11-11T02:09:30.795Z,95443.13
2017-11-11T02:11:59.271Z,95451.42
2017-11-11T02:14:26.896Z,95452.34
2017-11-11T02:16:54.685Z,95458.48
2017-11-11T02:19:22.353Z,95457.86
2017-11-11T02:21:49.987Z,95461.69
2017-11-11T02:24:17.786Z,95457.92
2017-11-11T02:26:45.362Z,95448.66
2017-11-11T02:29:12.992Z,95448.68
2017-11-11T02:31:40.592Z,95459.41
2017-11-11T02:34:08.240Z,95459.23
2017-11-11T02:36:36.741Z,95463.66
2017-11-11T02:39:04.665Z,95473.18
2017-11-11T02:41:32.269Z,95472.30
2017-11-11T02:44:00.452Z,95451.14
2017-11-11T02:46:28.124Z,95457.16
2017-11-11T02:48:55.947Z,95470.75
2017-11-11T02:51:23.574Z,95476.36
2017-11-11T02:53:51.252Z,95473.59
2017-11-11T02:56:19.083Z,95464.83
2017-11-11T02:58:46.945Z,95465.78
2017-11-11T03:01:14.535Z,95459.52
2017-11-11T03:03:42.335Z,95460.77
2017-11-11T03:06:09.982Z,95451.13
2017-11-11T03:08:37.605Z,95452.30
2017-11-11T03:11:05.992Z,95453.93
2017-11-11T03:13:33.789Z,95458.67
2017-11-11T03:16:01.402Z,95447.03
2017-11-11T03:18:29.224Z,95442.91
2017-11-11T03:20:56.778Z,95447.47
2017-11-11T03:23:24.576Z,95447.30
2017-11-11T03:25:52.180Z,95441.35
2017-11-11T03:28:19.782Z,95448.67
2017-11-11T03:30:47.431Z,95433.04
2017-11-11T03:33:15.043Z,95437.49
2017-11-11T03:35:42.909Z,95437.95
2017-11-11T03:38:10.529Z,95430.51
2017-11-11T03:40:38.959Z,95427.03
2017-11-11T03:43:07.056Z,95426.67
2017-11-11T03:45:35.597Z,95441.88
2017-11-11T03:48:03.246Z,95439.77
2017-11-11T03:50:31.002Z,95433.05
2017-11-11T03:52:58.588Z,95428.95
2017-11-11T03:55:26.205Z,95421.34
2017-11-11T03:57:53.779Z,95410.83
2017-11-11T04:00:21.425Z,95414.69
2017-11-11T04:02:49.062Z,95425.38
2017-11-11T04:05:18.159Z,95439.00
2017-11-11T04:07:45.849Z,95439.11
2017-11-11T04:10:13.509Z,95439.62
2017-11-11T04:12:41.456Z,95442.84
2017-11-11T04:15:09.081Z,95442.35
2017-11-11T04:17:36.652Z,95433.04
2017-11-11T04:20:04.483Z,95436.30
2017-11-11T04:22:32.126Z,95432.20
2017-11-11T04:25:00.206Z,95429.88
2017-11-11T04:27:27.929Z,95440.85
2017-11-11T04:29:55.539Z,95418.95
2017-11-11T04:32:23.824Z,95428.05
2017-11-11T04:34:51.383Z,95440.30
2017-11-11T04:37:20.014Z,95430.19
2017-11-11T04:39:48.884Z,95424.47
2017-11-11T04:42:16.694Z,95438.31
2017-11-11T04:44:44.348Z,95455.39
2017-11-11T04:47:11.983Z,95440.88
2017-11-11T04:49:39.747Z,95451.71
2017-11-11T04:52:07.474Z,95457.25
2017-11-11T04:54:36.120Z,95443.41
2017-11-11T04:57:03.941Z,95434.72
2017-11-11T04:59:31.647Z,95455.11
2017-11-11T05:01:59.393Z,95461.23
2017-11-11T05:04:26.988Z,95446.25
2017-11-11T05:06:54.681Z,95433.92
2017-11-11T05:09:23.233Z,95448.09
2017-11-11T05:11:50.940Z,95448.56
2017-11-11T05:14:18.775Z,95451.29
2017-11-11T05:16:46.416Z,95449.58
2017-11-11T05:19:14.096Z,95444.13
2017-11-11T05:21:41.664Z,95439.48
2017-11-11T05:24:09.367Z,95431.71
2017-11-11T05:26:36.896Z,95449.30
2017-11-11T05:29:04.650Z,95453.94
2017-11-11T05:31:32.497Z,95452.75
2017-11-11T05:34:00.510Z,95442.95
2017-11-11T05:36:28.108Z,95445.75
2017-11-11T05:38:55.679Z,95462.55
2017-11-11T05:41:23.438Z,95459.64
2017-11-11T05:43:51.004Z,95463.50
2017-11-11T05:46:18.674Z,95466.23
2017-11-11T05:48:46.225Z,95462.69
2017-11-11T05:51:14.699Z,95482.55
2017-11-11T05:53:42.305Z,95476.27
2017-11-11T05:56:10.140Z,95485.27
2017-11-11T05:58:37.717Z,95482.32
2017-11-11T06:01:05.338Z,95488.93
2017-11-11T06:03:33.108Z,95494.86
2017-11-11T06:06:00.633Z,95496.53
2017-11-11T06:08:28.210Z,95494.78
2017-11-11T06:10:55.754Z,95508.45
2017-11-11T06:13:23.374Z,95518.58
2017-11-11T06:15:50.960Z,95529.95
2017-11-11T06:18:18.513Z,95516.89
2017-11-11T06:20:46.084Z,95520.06
2017-11-11T06:23:13.705Z,95521.80
2017-11-11T06:25:41.296Z,95518.78
2017-11-11T06:28:08.968Z,95515.47
2017-11-11T06:30:36.548Z,95510.75
2017-11-11T06:33:04.356Z,95515.11
2017-11-11T06:35:31.935Z,95520.63
2017-11-11T06:37:59.561Z,95518.87
2017-11-11T06:40:27.127Z,95521.78
2017-11-11T06:42:54.733Z,95528.51
2017-11-11T06:45:22.305Z,95523.59
2017-11-11T06:47:49.829Z,95527.92
2017-11-11T06:50:17.391Z,95518.30
2017-11-11T06:52:45.277Z,95528.57
2017-11-11T06:55:12.901Z,95529.09
2017-11-11T06:57:40.786Z,95520.11
2017-11-11T07:00:10.569Z,95527.39
2017-11-11T07:02:38.169Z,95524.09
2017-11-11T07:05:06.691Z,95519.40
2017-11-11T07:07:34.320Z,95516.67
2017-11-11T07:10:01.949Z,95526.02
2017-11-11T07:12:29.767Z,95510.05
2017-11-11T07:14:57.453Z,95501.83
2017-11-11T07:17:25.040Z,95502.67
2017-11-11T07:19:52.848Z,95493.80
2017-11-11T07:22:20.490Z,95491.61
2017-11-11T07:24:48.070Z,95492.22
2017-11-11T07:27:15.836Z,95492.00
2017-11-11T07:29:43.883Z,95492.75
2017-11-11T07:32:14.437Z,95488.56
2017-11-11T07:34:42.069Z,95504.01
2017-11-11T07:37:09.651Z,95500.03
2017-11-11T07:39:37.330Z,95505.77
2017-11-11T07:42:05.133Z,95505.67
2017-11-11T07:44:34.542Z,95507.78
2017-11-11T07:47:03.797Z,95500.23
2017-11-11T07:49:31.325Z,95511.83
2017-11-11T07:52:02.490Z,95518.59
2017-11-11T07:54:30.111Z,95523.95
2017-11-11T07:56:57.892Z,95518.94
2017-11-11T07:59:25.500Z,95519.84
2017-11-11T08:01:54.359Z,95527.50
2017-11-11T08:04:22.058Z,95528.63
2017-11-11T08:06:50.612Z,95525.88
2017-11-11T08:09:18.273Z,95524.58
2017-11-11T08:11:47.048Z,95528.70
2017-11-11T08:14:14.747Z,95532.35
2017-11-11T08:16:42.412Z,95531.12
2017-11-11T08:19:13.609Z,95526.05
2017-11-11T08:21:41.235Z,95528.34
2017-11-11T08:24:08.934Z,95530.77
2017-11-11T08:26:37.562Z,95537.63
2017-11-11T08:29:05.422Z,95536.13
2017-11-11T08:31:33.060Z,95545.38
2017-11-11T08:34:00.810Z,95527.27
2017-11-11T08:36:28.480Z,95520.51
2017-11-11T08:38:56.128Z,95519.87
2017-11-11T08:41:24.376Z,95521.73
2017-11-11T08:43:52.013Z,95523.48
2017-11-11T08:49:52.424Z,95525.35
2017-11-11T08:52:20.128Z,95513.52
2017-11-11T08:54:47.792Z,95515.27
2017-11-11T08:57:15.700Z,95515.86
2017-11-11T08:59:43.398Z,95516.42
2017-11-11T09:02:11.701Z,95511.56
2017-11-11T09:04:39.514Z,95515.15
2017-11-11T09:07:07.277Z,95513.42
2017-11-11T09:09:36.363Z,95506.43
2017-11-11T09:12:04.065Z,95507.33
2017-11-11T09:14:31.956Z,95511.00
2017-11-11T09:16:59.624Z,95520.65
2017-11-11T09:19:29.226Z,95511.40
2017-11-11T09:22:05.608Z,95503.16
2017-11-11T09:24:33.243Z,95497.67
2017-11-11T09:27:00.925Z,95488.10
2017-11-11T09:29:37.978Z,95484.62
2017-11-11T09:32:06.359Z,95478.06
2017-11-11T09:34:34.386Z,95468.28
2017-11-11T09:37:03.095Z,95467.09
2017-11-11T09:39:34.020Z,95461.36
2017-11-11T09:42:11.223Z,95458.09
2017-11-11T09:44:41.874Z,95457.56
2017-11-11T09:47:11.471Z,95453.16
2017-11-11T09:49:41.412Z,95447.89
2017-11-11T09:52:11.559Z,95450.14
2017-11-11T09:54:40.552Z,95441.81
2017-11-11T09:57:08.298Z,95443.96
2017-11-11T09:59:35.971Z,95439.95
2017-11-11T10:02:04.716Z,95438.52
2017-11-11T10:04:32.535Z,95435.59
2017-11-11T10:07:00.208Z,95423.78
2017-11-11T10:09:28.844Z,95416.50
2017-11-11T10:11:59.582Z,95417.76
2017-11-11T10:14:29.660Z,95405.48
2017-11-11T10:16:57.215Z,95409.25
2017-11-11T10:19:27.621Z,95406.70
2017-11-11T10:22:00.384Z,95388.81
2017-11-11T10:24:34.663Z,95387.92
2017-11-11T10:27:13.779Z,95386.38
2017-11-11T10:29:42.552Z,95385.92
2017-11-11T10:32:10.256Z,95395.95
2017-11-11T10:34:38.325Z,95389.55
2017-11-11T10:37:06.692Z,95389.86
2017-11-11T10:39:34.289Z,95393.53
2017-11-11T10:42:02.674Z,95391.24
2017-11-11T10:44:30.483Z,95390.75
2017-11-11T10:46:58.186Z,95396.00
2017-11-11T10:49:25.817Z,95384.62
2017-11-11T10:51:53.479Z,95384.58
2017-11-11T10:54:21.115Z,95383.95
2017-11-11T10:56:50.610Z,95374.00
2017-11-11T10:59:18.217Z,95367.97
2017-11-11T11:01:45.873Z,95363.92
2017-11-11T11:04:13.554Z,95356.16
2017-11-11T11:06:41.186Z,95344.08
2017-11-11T11:09:08.911Z,95342.42
2017-11-11T11:11:40.161Z,95339.84
2017-11-11T11:14:08.013Z,95328.03
2017-11-11T11:16:35.663Z,95324.33
2017-11-11T11:19:04.073Z,95328.11
2017-11-11T11:21:31.824Z,95331.83
2017-11-11T11:23:59.457Z,95330.84
2017-11-11T11:26:27.615Z,95338.48
2017-11-11T11:28:56.497Z,95338.28
2017-11-11T11:31:24.302Z,95338.26
2017-11-11T11:33:51.868Z,95325.95
2017-11-11T11:42:42.900Z,95322.02
2017-11-11T11:45:10.560Z,95318.30
2017-11-11T11:47:38.471Z,95330.98
2017-11-11T11:50:09.074Z,95329.89
2017-11-11T11:52:36.714Z,95321.64
2017-11-11T11:55:04.391Z,95328.58
2017-11-11T11:57:32.124Z,95323.62
2017-11-11T12:00:01.807Z,95328.22
2017-11-11T12:02:29.465Z,95322.17
2017-11-11T12:04:57.048Z,95329.75
2017-11-11T12:07:24.752Z,95327.39
2017-11-11T12:09:52.623Z,95327.06
2017-11-11T12:12:20.407Z,95323.95
2017-11-11T12:14:56.616Z,95317.82
2017-11-11T12:17:24.190Z,95335.49
2017-11-11T12:20:34.191Z,95323.88
2017-11-11T12:23:13.058Z,95331.16
2017-11-11T12:25:40.915Z,95320.36
2017-11-11T12:28:08.460Z,95328.27
2017-11-11T12:30:58.589Z,95317.20
2017-11-11T12:33:26.190Z,95318.75
2017-11-11T12:35:58.812Z,95324.75
2017-11-11T12:38:31.465Z,95324.77
2017-11-11T12:54:38.680Z,95330.06
2017-11-11T12:57:06.292Z,95326.25
2017-11-11T12:59:33.911Z,95317.28
2017-11-11T13:02:02.489Z,95316.13
2017-11-11T13:04:30.896Z,95326.80
2017-11-11T13:06:58.456Z,95331.47
2017-11-11T13:09:26.612Z,95325.45
2017-11-11T13:11:54.242Z,95319.07
2017-11-11T13:14:21.867Z,95315.91
2017-11-11T13:16:49.553Z,95316.93
2017-11-11T13:19:17.755Z,95321.70
2017-11-11T13:21:45.572Z,95320.19
2017-11-11T13:24:13.278Z,95319.07
2017-11-11T13:26:41.790Z,95306.08
2017-11-11T13:29:09.367Z,95312.87
2017-11-11T13:31:37.769Z,95311.27
2017-11-11T13:34:06.257Z,95313.63
2017-11-11T13:36:33.878Z,95310.07
2017-11-11T13:39:02.259Z,95305.27
2017-11-11T13:41:30.027Z,95303.42
2017-11-11T13:43:57.630Z,95307.09
2017-11-11T13:46:25.269Z,95300.70
2017-11-11T13:48:52.888Z,95309.24
2017-11-11T13:51:20.463Z,95306.66
2017-11-11T13:53:48.095Z,95303.36
2017-11-11T13:56:15.630Z,95304.91
2017-11-11T13:58:43.165Z,95302.50
2017-11-11T14:01:10.826Z,95310.16
2017-11-11T14:03:38.704Z,95298.66
2017-11-11T14:06:06.304Z,95298.95
2017-11-11T14:08:34.101Z,95295.45
2017-11-11T14:11:01.676Z,95299.14
2017-11-11T14:13:29.232Z,95303.14
2017-11-11T14:15:59.931Z,95307.70
2017-11-11T14:18:27.549Z,95311.53
2017-11-11T14:20:55.157Z,95316.30
2017-11-11T14:23:22.791Z,95315.01
2017-11-11T14:29:24.608Z,95319.13
2017-11-11T14:31:52.251Z,95315.82
2017-11-11T14:34:19.841Z,95320.41
2017-11-11T14:36:48.720Z,95321.27
2017-11-11T14:39:33.269Z,95323.63
2017-11-11T14:44:51.710Z,95313.09
2017-11-11T14:47:19.527Z,95315.42
2017-11-11T14:49:47.956Z,95317.23
2017-11-11T14:52:18.967Z,95323.68
2017-11-11T14:54:50.301Z,95318.80
2017-11-11T14:57:26.115Z,95320.13
2017-11-11T15:00:11.134Z,95317.69
2017-11-11T15:02:41.341Z,95322.53
2017-11-11T15:05:09.104Z,95324.56
2017-11-11T15:07:36.762Z,95324.00
2017-11-11T15:10:06.104Z,95335.30
2017-11-11T15:12:33.862Z,95324.44
2017-11-11T15:15:02.292Z,95322.91
2017-11-11T15:17:30.092Z,95313.58
2017-11-11T15:19:57.996Z,95333.11
2017-11-11T15:22:26.428Z,95322.92
2017-11-11T15:24:54.154Z,95326.67
2017-11-11T15:27:22.775Z,95321.87
2017-11-11T15:29:50.454Z,95334.98
2017-11-11T15:32:18.151Z,95332.52
2017-11-11T15:34:45.841Z,95333.70
2017-11-11T15:37:13.856Z,95323.41
2017-11-11T15:39:41.870Z,95326.27
2017-11-11T15:42:09.500Z,95318.33
2017-11-11T15:44:37.151Z,95319.67
2017-11-11T15:47:04.801Z,95322.00
2017-11-11T15:49:33.124Z,95329.80
2017-11-11T15:52:00.764Z,95330.69
2017-11-11T15:54:28.484Z,95326.96
2017-11-11T15:56:56.538Z,95338.30
2017-11-11T15:59:24.203Z,95336.72
2017-11-11T16:01:51.870Z,95330.52
2017-11-11T16:04:19.681Z,95332.16
2017-11-11T16:06:49.095Z,95332.84
2017-11-11T16:13:02.363Z,95338.20
2017-11-11T16:15:30.204Z,95339.11
2017-11-11T16:18:05.298Z,95338.14
2017-11-11T16:20:33.081Z,95339.56
2017-11-11T16:33:00.729Z,95335.89
2017-11-11T16:35:32.425Z,95342.11
2017-11-11T17:21:54.817Z,95329.75
2017-11-11T17:24:26.033Z,95325.33
2017-11-11T17:26:53.736Z,95326.25
2017-11-11T17:29:22.740Z,95321.81
2017-11-11T17:34:31.393Z,95320.43
2017-11-11T17:36:59.884Z,95325.41
2017-11-11T17:39:27.729Z,95311.58
2017-11-11T17:41:55.778Z,95318.33
2017-11-11T17:44:23.611Z,95308.61
2017-11-11T17:46:51.376Z,95312.87
2017-11-11T17:49:19.785Z,95310.89
2017-11-11T17:51:48.429Z,95309.27
2017-11-11T17:54:16.154Z,95305.79
2017-11-11T17:56:43.900Z,95307.08
2017-11-11T17:59:13.260Z,95308.51
2017-11-11T18:02:24.703Z,95307.70
2017-11-11T18:15:09.769Z,95302.16
2017-11-11T18:17:39.485Z,95300.33
2017-11-11T18:20:26.927Z,95301.40
2017-11-11T18:22:54.693Z,95305.36
2017-11-11T18:37:06.928Z,95311.95
2017-11-11T18:39:56.957Z,95305.30
2017-11-11T18:46:01.189Z,95302.84
2017-11-11T18:54:48.962Z,95135.12
2017-11-11T18:57:16.788Z,95295.87
2017-11-11T18:59:48.201Z,95299.78
2017-11-11T19:05:24.067Z,95312.08
2017-11-11T19:08:17.411Z,95312.13
2017-11-11T19:10:50.083Z,95316.23
2017-11-11T19:13:33.120Z,95300.27
2017-11-11T19:16:34.710Z,95306.36
2017-11-11T19:19:43.676Z,95309.31
2017-11-11T19:22:13.153Z,95307.35
2017-11-11T19:24:40.889Z,95308.86
2017-11-11T19:27:09.885Z,95310.38
2017-11-11T19:30:00.037Z,95313.69
2017-11-11T19:32:35.231Z,95309.41
2017-11-11T19:35:06.233Z,95312.42
2017-11-11T19:37:34.682Z,95290.73
2017-11-11T19:40:02.516Z,95314.49
2017-11-11T19:42:30.243Z,95319.88
2017-11-11T19:44:58.691Z,95315.14
2017-11-11T19:47:26.323Z,95318.09
2017-11-11T19:49:56.135Z,95324.17
2017-11-11T19:52:23.755Z,95321.59
2017-11-11T19:54:51.413Z,95312.03
2017-11-11T19:57:19.223Z,95318.38
2017-11-11T19:59:46.998Z,95311.15
2017-11-11T20:02:16.965Z,95302.55
2017-11-11T20:04:45.215Z,95304.51
2017-11-11T20:07:12.911Z,95307.52
2017-11-11T20:09:47.491Z,95299.88
2017-11-11T20:12:15.184Z,95300.13
2017-11-11T20:14:42.857Z,95298.69
2017-11-11T20:17:10.526Z,95299.79
2017-11-11T20:19:38.169Z,95290.27
2017-11-11T20:22:05.921Z,95288.06
2017-11-11T20:24:33.541Z,95283.74
2017-11-11T20:27:01.228Z,95289.42
2017-11-11T20:29:28.825Z,95292.84
2017-11-11T20:31:56.437Z,95295.00
2017-11-11T20:34:25.441Z,95293.23
2017-11-11T20:36:53.272Z,95292.91
2017-11-11T20:39:20.969Z,95286.52
2017-11-11T20:41:58.175Z,95289.37
2017-11-11T20:44:32.606Z,95284.30
2017-11-11T20:47:03.012Z,95287.28
2017-11-11T20:49:42.723Z,95282.59
2017-11-11T20:52:12.622Z,95289.64
2017-11-11T20:54:55.758Z,95292.64
2017-11-11T20:57:24.337Z,95293.08
2017-11-11T20:59:51.956Z,95292.95
2017-11-11T21:02:19.579Z,95289.08
2017-11-11T21:04:47.413Z,95288.83
2017-11-11T21:07:15.001Z,95285.38
2017-11-11T21:09:42.750Z,95288.61
2017-11-11T21:12:10.871Z,95293.13
2017-11-11T21:14:39.425Z,95286.20
2017-11-11T21:17:08.021Z,95285.84
2017-11-11T21:19:35.907Z,95293.81
2017-11-11T21:22:04.880Z,95290.13
2017-11-11T21:24:32.693Z,95282.83
2017-11-11T21:27:00.440Z,95282.80
2017-11-11T21:29:29.270Z,95282.77
2017-11-11T21:31:56.965Z,95288.93
2017-11-11T21:34:24.713Z,95297.62
2017-11-11T21:36:52.287Z,95296.96
2017-11-11T21:39:20.149Z,95290.89
2017-11-11T21:41:48.595Z,95282.18
2017-11-11T21:44:16.371Z,95283.66
2017-11-11T21:46:44.658Z,95281.17
2017-11-11T21:49:12.275Z,95273.81
2017-11-11T21:51:39.900Z,95277.77
2017-11-11T21:54:07.523Z,95272.68
2017-11-11T21:56:35.160Z,95264.28
2017-11-11T21:59:02.981Z,95281.08
2017-11-11T22:01:30.652Z,95276.91
2017-11-11T22:03:59.365Z,95272.30
2017-11-11T22:06:27.604Z,95268.50
2017-11-11T22:08:55.263Z,95272.11
2017-11-11T22:11:22.929Z,95267.84
2017-11-11T22:13:50.611Z,95273.84
2017-11-11T22:16:18.277Z,95271.53
2017-11-11T22:18:46.509Z,95259.96
2017-11-11T22:21:14.082Z,95256.62
2017-11-11T22:23:41.773Z,95252.81
2017-11-11T22:26:10.429Z,95257.40
2017-11-11T22:28:38.273Z,95258.30
2017-11-11T22:31:06.832Z,95250.80
2017-11-11T22:33:35.450Z,95244.63
2017-11-11T22:36:03.077Z,95249.73
2017-11-11T22:38:31.720Z,95250.31
2017-11-11T22:40:59.297Z,95252.73
2017-11-11T22:43:27.807Z,95247.70
2017-11-11T22:45:56.205Z,95234.48
2017-11-11T22:48:24.138Z,95240.88
2017-11-11T22:50:52.316Z,95238.80
2017-11-11T22:53:20.066Z,95238.03
2017-11-11T22:55:47.997Z,95232.11
2017-11-11T22:58:18.432Z,95220.84
2017-11-11T23:00:46.128Z,95225.60
2017-11-11T23:03:13.783Z,95222.06
2017-11-11T23:05:41.436Z,95222.58
2017-11-11T23:08:09.138Z,95221.11
2017-11-11T23:10:38.540Z,95222.91
2017-11-11T23:13:06.130Z,95221.73
2017-11-11T23:15:34.242Z,95220.51
2017-11-11T23:18:01.879Z,95217.50
2017-11-11T23:20:29.537Z,95208.83
2017-11-11T23:22:57.585Z,95220.01
2017-11-11T23:25:25.560Z,95218.05
2017-11-11T23:27:54.175Z,95203.81
2017-11-11T23:30:22.019Z,95202.59
2017-11-11T23:32:49.870Z,95208.41
2017-11-11T23:35:17.563Z,95209.21
2017-11-11T23:37:45.710Z,95196.73
2017-11-11T23:40:13.627Z,95197.30
2017-11-11T23:42:41.346Z,95193.91
2017-11-11T23:45:09.984Z,95194.39
2017-11-11T23:47:37.593Z,95203.11
2017-11-11T23:50:06.078Z,95199.83
2017-11-11T23:52:33.720Z,95196.67
2017-11-11T23:55:01.410Z,95184.92
2017-11-11T23:57:29.064Z,95183.30
2017-11-11T23:59:56.853Z,95189.07
